Welcome to our new website - Welkom op onze vernieuwde website - Bienvenue sur notre nouveau site web - Willkommen auf unserer neuen Website

Onweer radar Meer informatie blitzortung!


Regen radar Meer informatie rain snow radar


Andere websites:

Onze vorige site

Leuven Template


METAR rapporten vliegvelden

   
EHGG - Leeuwarden
Gewijzigd: 26-09-2020 12:55
Gedeeltelijk bewolkt  
Gedeeltelijk bewolkt  
   Wind: varieert 3.7 km/h
Wind: varieert 3.7 km/h
Temperatuur: 13°C
Dauwpunt: 8°C
Vochtigheid: 72%
Barometer: 999 hPa
Bewolking: Gedeeltelijk bewolkt
Zicht: meer dan 10 km
Bewolking: Gedeeltelijk bewolkt
EHGG 261055Z AUTO VRB02KT 9999 NSC 13/08 Q0999 NOSIG
EHGG - Terschelling
Gewijzigd: 26-09-2020 12:55
Gedeeltelijk bewolkt  
Gedeeltelijk bewolkt  
   Wind: varieert 3.7 km/h
Wind: varieert 3.7 km/h
Temperatuur: 13°C
Dauwpunt: 8°C
Vochtigheid: 72%
Barometer: 999 hPa
Bewolking: Gedeeltelijk bewolkt
Zicht: meer dan 10 km
Bewolking: Gedeeltelijk bewolkt
EHGG 261055Z AUTO VRB02KT 9999 NSC 13/08 Q0999 NOSIG
EHAM - Amsterdam
Gewijzigd: 26-09-2020 12:55
Licht bewolkt  
Licht bewolkt  
   Wind: Noorden 13 km/h
Wind: Noorden 13 km/h
Temperatuur: 16°C
Dauwpunt: 10°C
Vochtigheid: 68%
Barometer: 999 hPa
Bewolking: Licht bewolkt
Zicht: meer dan 10 km
Bewolking: Licht bewolkt 2700 ft
EHAM 261055Z 36007KT 320V030 9999 FEW027 16/10 Q0999 NOSIG
EHBK - Maastricht
Gewijzigd: 26-09-2020 12:55
Bewolking  
Bewolking  
   Wind: WNW 11.1 km/h
Wind: WNW 11.1 km/h
Temperatuur: 12°C
Dauwpunt: 8°C
Vochtigheid: 77%
Barometer: 999 hPa
Bewolking: Bewolking
Zicht: meer dan 10 km
Bewolking: Licht bewolkt 2100 ft,
Bewolking 2900 ft
EHBK 261055Z AUTO 29006KT 240V360 9999 FEW021 OVC029 12/08 Q0999 NOSIG
  

Script ontwikkeld door  Saratoga-weather.org Aangepast voor de template door  Weerstation Leuven

U vindt ons ook hier:

European Weather Network

Weather Underground

AWEKAS

Apparatuur in gebruik:

Weerstation
Davis VP2

Weerprogramma
Cumulus

Davis VP2

Cumulus